Time;durP1;ratioP1;P1;durP2;ratioP2;P2;SDS_P1;SDS_P2;PMS_P1;PMS_P2;Temp;Humidity;BMP_temperature;BMP_pressure;BME280_temperature;BME280_humidity;BME280_pressure;Samples;Min_cycle;Max_cycle;Signal;HPM_P1;HPM_P2
2024/04/04 00:02:17;;;;;;;7.63;2.53;;;11.00;99.90;;;;;;4866271;29;20238;-82
2024/04/04 00:04:44;;;;;;;3.13;2.20;;;11.00;99.90;;;;;;4869723;29;20212;-83
2024/04/04 00:07:10;;;;;;;3.23;2.20;;;11.00;99.90;;;;;;4868871;29;20815;-83
2024/04/04 00:09:37;;;;;;;3.77;2.10;;;11.00;99.90;;;;;;4865069;29;20249;-80
2024/04/04 00:12:05;;;;;;;2.67;2.10;;;11.10;99.90;;;;;;4870135;29;20213;-83
2024/04/04 00:14:32;;;;;;;7.33;2.10;;;11.10;99.90;;;;;;4872730;29;20196;-82
2024/04/04 00:16:59;;;;;;;4.43;2.10;;;11.10;99.90;;;;;;4871110;29;20968;-83
2024/04/04 00:19:26;;;;;;;7.13;2.60;;;11.10;99.90;;;;;;4876137;29;20573;-82
2024/04/04 00:21:52;;;;;;;5.03;2.20;;;11.10;99.90;;;;;;4870162;29;20301;-83
2024/04/04 00:24:18;;;;;;;3.03;2.10;;;11.10;99.90;;;;;;4866926;29;20676;-83
2024/04/04 00:26:44;;;;;;;6.40;2.70;;;11.10;99.90;;;;;;4869503;29;20303;-82
2024/04/04 00:29:13;;;;;;;5.30;2.30;;;11.10;99.90;;;;;;4865302;29;20212;-83
2024/04/04 00:31:39;;;;;;;3.17;2.87;;;11.10;99.90;;;;;;4868012;29;20207;-82
2024/04/04 00:34:06;;;;;;;7.13;2.50;;;11.20;99.90;;;;;;4875678;29;20647;-81
2024/04/04 00:36:31;;;;;;;6.43;2.60;;;11.20;99.90;;;;;;4870010;29;20224;-82
2024/04/04 00:38:58;;;;;;;5.03;2.67;;;11.20;99.90;;;;;;4874412;29;20202;-82
2024/04/04 00:41:24;;;;;;;7.57;2.60;;;11.20;99.90;;;;;;4869258;29;20314;-83
2024/04/04 00:43:51;;;;;;;5.23;2.43;;;11.20;99.90;;;;;;4872634;29;20235;-81
2024/04/04 00:46:18;;;;;;;4.87;2.17;;;11.20;99.90;;;;;;4865313;29;20883;-81
2024/04/04 00:48:45;;;;;;;4.87;2.30;;;11.20;99.90;;;;;;4873415;29;20209;-82
2024/04/04 00:51:11;;;;;;;4.43;2.03;;;11.20;99.90;;;;;;4871875;29;20699;-82
2024/04/04 00:53:39;;;;;;;7.13;2.77;;;11.20;99.90;;;;;;4864328;29;20209;-82
2024/04/04 00:56:05;;;;;;;5.00;2.87;;;11.20;99.90;;;;;;4873597;29;20315;-84
2024/04/04 00:58:32;;;;;;;4.00;2.50;;;11.20;99.90;;;;;;4870274;29;20327;-83
2024/04/04 01:00:58;;;;;;;7.60;2.67;;;11.20;99.90;;;;;;4867079;29;20208;-83
2024/04/04 01:03:27;;;;;;;6.60;3.00;;;11.20;99.90;;;;;;4868341;29;20642;-82
2024/04/04 01:05:53;;;;;;;4.87;2.30;;;11.20;99.90;;;;;;4873310;29;20766;-83
2024/04/04 01:08:21;;;;;;;8.40;2.80;;;11.20;99.90;;;;;;4862389;29;20291;-81
2024/04/04 01:10:48;;;;;;;7.23;3.00;;;11.20;99.90;;;;;;4871516;29;20280;-83
2024/04/04 01:13:14;;;;;;;4.57;2.83;;;11.20;99.90;;;;;;4866596;29;20660;-81
2024/04/04 01:15:41;;;;;;;7.13;2.47;;;11.20;99.90;;;;;;4865509;29;20224;-83
2024/04/04 01:18:07;;;;;;;5.83;2.60;;;11.20;99.90;;;;;;4878605;29;20236;-83
2024/04/04 01:20:36;;;;;;;8.37;3.30;;;11.20;99.90;;;;;;4870969;29;20303;-83
2024/04/04 01:23:02;;;;;;;5.20;2.77;;;11.20;99.90;;;;;;4867979;29;20249;-82
2024/04/04 01:25:30;;;;;;;4.73;2.50;;;11.20;99.90;;;;;;4875747;29;20223;-81
2024/04/04 01:27:56;;;;;;;7.00;2.80;;;11.20;99.90;;;;;;4871429;29;20299;-81
2024/04/04 01:30:23;;;;;;;4.60;2.57;;;11.20;99.90;;;;;;4873312;29;20272;-82
2024/04/04 01:32:49;;;;;;;6.33;2.90;;;11.20;99.90;;;;;;4866401;29;20630;-83
2024/04/04 01:35:16;;;;;;;7.90;2.73;;;11.20;99.90;;;;;;4865215;29;20228;-82
2024/04/04 01:37:42;;;;;;;8.13;2.63;;;11.20;99.90;;;;;;4861122;29;20299;-83
2024/04/04 01:40:09;;;;;;;6.30;2.60;;;11.20;99.90;;;;;;4867763;29;20292;-83
2024/04/04 01:42:36;;;;;;;5.07;2.57;;;11.20;99.90;;;;;;4868437;29;20235;-82
2024/04/04 01:45:07;;;;;;;5.97;1.97;;;11.20;99.90;;;;;;4869232;29;20218;-82
2024/04/04 01:47:33;;;;;;;5.00;2.40;;;11.20;99.90;;;;;;4865232;29;20236;-81
2024/04/04 01:49:59;;;;;;;6.67;2.23;;;11.20;99.90;;;;;;4868256;29;20236;-82
2024/04/04 01:52:25;;;;;;;7.70;2.10;;;11.20;99.90;;;;;;4868856;29;20590;-83
2024/04/04 02:20:34;;;;;;;6.40;1.97;;;11.20;99.90;;;;;;4862482;29;20239;-85
2024/04/04 05:07:06;;;;;;;6.17;1.77;;;9.80;99.90;;;;;;4759445;30;20228;-87
2024/04/04 05:13:37;;;;;;;5.47;1.60;;;9.80;99.90;;;;;;4637525;30;20575;-87
2024/04/04 05:16:20;;;;;;;5.70;1.37;;;9.80;99.90;;;;;;4615783;30;20387;-86
2024/04/04 05:18:47;;;;;;;1.77;1.47;;;9.70;99.90;;;;;;4673743;30;20351;-88
2024/04/04 05:21:13;;;;;;;3.30;1.50;;;9.70;99.90;;;;;;4757421;29;20208;-87
2024/04/04 05:23:40;;;;;;;2.10;1.40;;;9.80;99.90;;;;;;4869188;29;20228;-87
2024/04/04 05:26:06;;;;;;;6.03;1.43;;;9.80;99.90;;;;;;4875543;29;20260;-87
2024/04/04 05:28:34;;;;;;;2.63;1.40;;;9.80;99.90;;;;;;4875384;29;20204;-87
2024/04/04 05:31:00;;;;;;;5.17;1.43;;;9.90;99.90;;;;;;4875720;29;20200;-87
2024/04/04 05:33:28;;;;;;;4.30;1.33;;;9.90;99.90;;;;;;4873640;29;20306;-87
2024/04/04 05:35:54;;;;;;;5.30;1.60;;;9.90;99.90;;;;;;4874051;29;20244;-87
2024/04/04 05:38:21;;;;;;;3.47;1.23;;;9.90;99.90;;;;;;4867701;29;20324;-87
2024/04/04 05:40:48;;;;;;;4.93;1.27;;;9.90;99.90;;;;;;4874779;29;20303;-87
2024/04/04 05:43:14;;;;;;;3.87;1.43;;;9.90;99.90;;;;;;4865401;29;20233;-85
2024/04/04 05:45:41;;;;;;;7.07;1.37;;;9.90;99.90;;;;;;4873119;29;20667;-89
2024/04/04 05:48:08;;;;;;;5.57;1.40;;;10.00;99.90;;;;;;4868588;29;20228;-86
2024/04/04 05:50:35;;;;;;;6.03;1.50;;;10.00;99.90;;;;;;4867301;29;20314;-87
2024/04/04 05:53:02;;;;;;;3.97;1.30;;;10.00;99.90;;;;;;4876366;29;20209;-86
2024/04/04 05:55:29;;;;;;;5.37;1.47;;;10.00;99.90;;;;;;4875064;29;20260;-86
2024/04/04 05:57:56;;;;;;;4.23;1.20;;;10.00;99.90;;;;;;4873804;29;20216;-85
2024/04/04 06:00:22;;;;;;;5.73;1.10;;;10.10;99.90;;;;;;4870345;29;20286;-82
2024/04/04 06:02:49;;;;;;;6.57;1.50;;;10.10;99.90;;;;;;4874353;29;20641;-82
2024/04/04 06:05:15;;;;;;;2.83;1.20;;;10.10;99.90;;;;;;4871910;29;20295;-83
2024/04/04 06:07:43;;;;;;;7.43;1.63;;;10.10;99.90;;;;;;4872588;29;20323;-82
2024/04/04 06:10:09;;;;;;;3.57;1.20;;;10.10;99.90;;;;;;4871121;29;20250;-83
2024/04/04 06:12:36;;;;;;;4.93;1.37;;;10.20;99.90;;;;;;4868122;29;20232;-82
2024/04/04 06:15:02;;;;;;;6.00;1.50;;;10.20;99.90;;;;;;4873872;29;20426;-83
2024/04/04 06:17:29;;;;;;;2.93;0.97;;;10.30;99.90;;;;;;4876059;29;20778;-83
2024/04/04 06:19:55;;;;;;;5.57;1.20;;;10.30;99.90;;;;;;4872385;29;20303;-83
2024/04/04 06:22:22;;;;;;;3.83;1.10;;;10.30;99.90;;;;;;4869104;29;20565;-82
2024/04/04 06:24:49;;;;;;;3.23;1.20;;;10.30;99.90;;;;;;4870480;29;20648;-81
2024/04/04 06:27:16;;;;;;;3.03;1.30;;;10.40;99.90;;;;;;4870568;29;20737;-82
2024/04/04 06:29:42;;;;;;;5.20;1.00;;;10.40;99.90;;;;;;4869421;29;20208;-82
2024/04/04 06:32:09;;;;;;;3.97;1.47;;;10.40;99.90;;;;;;4873783;29;20614;-81
2024/04/04 06:34:35;;;;;;;2.70;1.20;;;10.40;99.90;;;;;;4862807;29;20209;-82
2024/04/04 06:37:02;;;;;;;3.30;1.10;;;10.40;99.90;;;;;;4873046;29;20224;-82
2024/04/04 06:39:28;;;;;;;3.60;0.97;;;10.50;99.90;;;;;;4878052;29;20575;-82
2024/04/04 06:41:56;;;;;;;3.40;1.20;;;10.50;99.90;;;;;;4878467;29;20239;-82
2024/04/04 06:44:22;;;;;;;5.63;1.10;;;10.50;99.90;;;;;;4873423;29;20323;-81
2024/04/04 06:46:49;;;;;;;4.13;1.40;;;10.60;99.90;;;;;;4870278;29;20259;-81
2024/04/04 06:49:15;;;;;;;3.23;1.20;;;10.60;99.90;;;;;;4874394;29;20243;-82
2024/04/04 06:51:42;;;;;;;2.87;1.00;;;10.60;99.90;;;;;;4874307;29;20215;-82
2024/04/04 06:54:09;;;;;;;3.53;1.53;;;10.70;99.90;;;;;;4874593;29;20238;-81
2024/04/04 06:56:36;;;;;;;3.87;1.43;;;10.70;99.90;;;;;;4872672;29;20228;-82
2024/04/04 06:59:05;;;;;;;3.63;1.30;;;10.70;99.90;;;;;;4877801;29;20286;-82
2024/04/04 07:01:32;;;;;;;3.67;1.40;;;10.70;99.90;;;;;;4873958;29;20234;-82
2024/04/04 07:03:59;;;;;;;4.13;0.90;;;10.70;99.90;;;;;;4879623;29;20603;-82
2024/04/04 07:06:26;;;;;;;3.87;1.57;;;10.70;99.90;;;;;;4878418;29;20701;-82
2024/04/04 07:08:53;;;;;;;5.67;1.80;;;10.80;99.90;;;;;;4873115;29;20255;-82
2024/04/04 07:11:20;;;;;;;5.43;1.60;;;10.80;99.90;;;;;;4869348;29;20582;-83
2024/04/04 07:13:46;;;;;;;4.70;1.40;;;10.80;99.90;;;;;;4877040;29;20640;-82
2024/04/04 07:16:14;;;;;;;7.10;1.57;;;10.80;99.90;;;;;;4875243;29;20291;-82
2024/04/04 07:18:40;;;;;;;5.27;1.53;;;10.80;99.90;;;;;;4879270;29;20239;-82
2024/04/04 07:21:07;;;;;;;3.87;1.50;;;10.80;99.90;;;;;;4879583;29;20281;-82
2024/04/04 07:23:33;;;;;;;5.07;1.70;;;10.90;99.90;;;;;;4877289;29;20334;-82
2024/04/04 07:26:00;;;;;;;6.40;1.60;;;10.90;99.90;;;;;;4872835;29;20708;-82
2024/04/04 07:28:26;;;;;;;3.97;1.57;;;10.80;99.90;;;;;;4868721;29;20213;-82
2024/04/04 07:30:53;;;;;;;2.33;1.50;;;10.90;99.90;;;;;;4879130;29;20708;-82
2024/04/04 07:33:20;;;;;;;3.80;2.03;;;10.90;99.90;;;;;;4869285;29;20291;-82
2024/04/04 07:35:47;;;;;;;7.37;2.37;;;10.90;99.90;;;;;;4874941;29;20212;-82
2024/04/04 07:38:13;;;;;;;8.10;2.17;;;10.80;99.90;;;;;;4875935;29;20278;-82
2024/04/04 07:40:41;;;;;;;4.20;2.07;;;10.80;99.90;;;;;;4869605;29;20208;-82
2024/04/04 07:43:11;;;;;;;3.47;2.00;;;10.80;99.90;;;;;;4865712;29;20261;-82
2024/04/04 07:45:38;;;;;;;7.13;2.00;;;10.80;99.90;;;;;;4876619;29;20270;-82
2024/04/04 07:48:06;;;;;;;5.60;2.10;;;10.80;99.90;;;;;;4878112;29;20259;-82
2024/04/04 07:50:36;;;;;;;4.17;1.97;;;10.70;99.90;;;;;;4876181;29;20706;-82
2024/04/04 07:53:02;;;;;;;3.73;2.00;;;10.70;99.90;;;;;;4868322;29;20296;-82
2024/04/04 07:55:29;;;;;;;5.97;1.93;;;10.70;99.90;;;;;;4871232;29;20475;-82
2024/04/04 07:57:55;;;;;;;5.13;2.20;;;10.60;99.90;;;;;;4874066;29;20221;-82
2024/04/04 08:00:22;;;;;;;3.40;2.10;;;10.60;99.90;;;;;;4877448;29;20204;-82
2024/04/04 08:02:48;;;;;;;3.93;2.10;;;10.50;99.90;;;;;;4876161;29;20634;-82
2024/04/04 08:05:15;;;;;;;5.37;1.90;;;10.50;99.90;;;;;;4871672;29;20269;-82
2024/04/04 08:07:42;;;;;;;4.67;2.03;;;10.50;99.90;;;;;;4876613;29;20316;-81
2024/04/04 08:10:11;;;;;;;5.83;2.43;;;10.50;99.90;;;;;;4876888;29;20212;-81
2024/04/04 08:12:37;;;;;;;4.73;2.17;;;10.50;99.90;;;;;;4874390;29;20544;-82
2024/04/04 08:15:04;;;;;;;4.03;2.33;;;10.50;99.90;;;;;;4875613;29;20222;-81
2024/04/04 08:17:31;;;;;;;3.37;2.63;;;10.50;99.90;;;;;;4878442;29;20856;-81
2024/04/04 08:19:58;;;;;;;3.90;2.30;;;10.40;99.90;;;;;;4879420;29;20209;-82
2024/04/04 08:22:40;;;;;;;6.30;2.43;;;10.40;99.90;;;;;;4879250;29;20311;-81
2024/04/04 08:25:08;;;;;;;3.97;2.57;;;10.40;99.90;;;;;;4877247;29;20561;-81
2024/04/04 08:27:34;;;;;;;4.90;2.80;;;10.40;99.90;;;;;;4898778;24;20716;-84
2024/04/04 08:30:01;;;;;;;3.63;2.33;;;10.40;99.90;;;;;;4874830;29;20638;-82
2024/04/04 08:32:27;;;;;;;6.17;2.87;;;10.40;99.90;;;;;;4868793;29;20735;-83
2024/04/04 08:34:54;;;;;;;3.57;2.93;;;10.50;99.90;;;;;;4872824;29;20299;-82
2024/04/04 08:37:20;;;;;;;3.73;2.63;;;10.50;99.90;;;;;;4878451;29;20275;-83
2024/04/04 08:39:47;;;;;;;4.63;3.57;;;10.50;99.90;;;;;;4870763;29;20308;-82
2024/04/04 08:43:07;;;;;;;3.33;3.03;;;10.50;99.90;;;;;;4888290;23;20331;-83
2024/04/04 08:49:18;;;;;;;4.00;3.60;;;10.50;99.90;;;;;;4897425;29;20227;-83
2024/04/04 08:51:45;;;;;;;4.00;3.67;;;10.60;99.90;;;;;;4894994;29;20219;-83
2024/04/04 09:02:34;;;;;;;5.07;4.57;;;10.70;99.90;;;;;;4876001;29;20216;-85
2024/04/04 09:05:11;;;;;;;4.27;3.87;;;10.80;99.90;;;;;;4876697;29;20311;-85
2024/04/04 09:07:41;;;;;;;5.47;4.60;;;10.90;99.90;;;;;;4874140;29;20230;-85
2024/04/04 09:10:13;;;;;;;5.77;4.80;;;10.90;99.90;;;;;;4876368;29;20694;-84
2024/04/04 09:12:43;;;;;;;4.57;4.17;;;11.00;99.90;;;;;;4877119;29;20210;-85
2024/04/04 09:15:23;;;;;;;4.63;4.23;;;11.10;99.90;;;;;;4872620;29;20243;-85
2024/04/04 09:17:50;;;;;;;4.43;4.03;;;11.10;99.90;;;;;;4876956;29;20226;-85
2024/04/04 09:20:37;;;;;;;4.47;4.03;;;11.10;99.90;;;;;;4867730;29;20212;-86
2024/04/04 09:23:06;;;;;;;5.50;4.30;;;11.20;99.90;;;;;;4876850;29;20347;-85
2024/04/04 09:25:35;;;;;;;5.17;4.67;;;11.20;99.90;;;;;;4875141;29;20211;-86
2024/04/04 09:28:08;;;;;;;6.23;4.30;;;11.20;99.90;;;;;;4874512;29;20250;-85
2024/04/04 09:31:23;;;;;;;5.03;4.40;;;11.20;99.90;;;;;;4876018;29;20295;-84
2024/04/04 09:34:20;;;;;;;4.77;4.37;;;11.20;99.90;;;;;;4863455;29;20298;-85
2024/04/04 09:36:52;;;;;;;5.17;4.67;;;11.30;99.90;;;;;;4877000;29;20231;-82
2024/04/04 09:39:32;;;;;;;5.67;4.53;;;11.30;99.90;;;;;;4877337;29;20232;-82
2024/04/04 09:41:59;;;;;;;4.57;4.17;;;11.30;99.90;;;;;;4875347;29;20264;-83
2024/04/04 09:44:26;;;;;;;6.23;4.90;;;11.40;99.90;;;;;;4875781;29;20635;-82
2024/04/04 09:46:52;;;;;;;6.63;4.77;;;11.40;99.90;;;;;;4876572;29;20679;-83
2024/04/04 09:49:19;;;;;;;6.90;5.00;;;11.50;99.90;;;;;;4852256;29;20584;-83
2024/04/04 09:51:50;;;;;;;5.37;4.87;;;11.50;99.90;;;;;;4875303;29;20728;-82
2024/04/04 09:54:17;;;;;;;5.47;4.97;;;11.50;99.90;;;;;;4876507;29;20212;-82
2024/04/04 09:56:44;;;;;;;6.30;5.20;;;11.60;99.90;;;;;;4876726;29;20672;-83
2024/04/04 09:59:12;;;;;;;5.30;4.80;;;11.60;99.90;;;;;;4875686;29;20289;-82
2024/04/04 10:01:38;;;;;;;6.17;4.90;;;11.60;99.90;;;;;;4875227;29;20221;-82
2024/04/04 10:04:06;;;;;;;6.50;4.50;;;11.70;99.90;;;;;;4875171;29;20235;-82
2024/04/04 10:06:36;;;;;;;5.43;4.93;;;11.70;99.90;;;;;;4876514;29;20256;-82
2024/04/04 10:09:19;;;;;;;6.27;4.63;;;11.80;99.90;;;;;;4876485;29;20204;-82
2024/04/04 10:11:47;;;;;;;5.60;5.07;;;11.90;99.90;;;;;;4873310;29;20287;-82
2024/04/04 10:14:15;;;;;;;4.53;4.13;;;11.90;99.90;;;;;;4874731;29;20307;-82
2024/04/04 10:16:47;;;;;;;6.00;4.70;;;11.90;99.90;;;;;;4876481;29;20234;-82
2024/04/04 10:19:14;;;;;;;5.13;4.63;;;12.00;99.90;;;;;;4875772;29;20755;-81
2024/04/04 10:21:41;;;;;;;5.83;5.33;;;12.00;99.90;;;;;;4876067;29;20575;-81
2024/04/04 10:24:07;;;;;;;5.33;4.93;;;12.00;99.90;;;;;;4874038;29;20322;-82
2024/04/04 10:26:36;;;;;;;6.20;5.60;;;12.10;99.90;;;;;;4874375;29;20231;-82
2024/04/04 10:29:03;;;;;;;5.80;5.23;;;12.10;99.90;;;;;;4875745;29;20305;-81
2024/04/04 10:31:30;;;;;;;5.20;4.80;;;12.10;99.90;;;;;;4876629;29;20200;-82
2024/04/04 10:34:03;;;;;;;7.10;5.53;;;12.20;99.90;;;;;;4874670;29;20219;-82
2024/04/04 10:36:43;;;;;;;6.23;5.57;;;12.20;99.90;;;;;;4870736;29;20609;-82
2024/04/04 10:39:12;;;;;;;5.67;5.17;;;12.30;99.90;;;;;;4874979;29;20231;-82
2024/04/04 10:41:42;;;;;;;6.37;5.77;;;12.30;99.90;;;;;;4877535;29;20240;-82
2024/04/04 10:44:13;;;;;;;6.17;5.47;;;12.40;99.90;;;;;;4876334;29;20607;-81
2024/04/04 10:46:41;;;;;;;5.80;5.30;;;12.40;99.90;;;;;;4871072;29;20228;-81
2024/04/04 10:49:07;;;;;;;4.80;4.40;;;12.50;99.90;;;;;;4862170;29;20329;-82
2024/04/04 10:51:35;;;;;;;5.30;4.80;;;12.50;99.90;;;;;;4894923;29;20691;-82
2024/04/04 10:54:03;;;;;;;5.27;4.77;;;12.50;99.90;;;;;;4890911;29;20231;-82
2024/04/04 10:56:31;;;;;;;4.60;4.20;;;12.50;99.90;;;;;;4892881;29;20643;-83
2024/04/04 10:58:59;;;;;;;4.50;3.80;;;12.50;99.90;;;;;;4894601;29;20218;-83
2024/04/04 11:01:27;;;;;;;4.40;4.00;;;12.60;99.90;;;;;;4889806;29;20213;-82
2024/04/04 11:03:54;;;;;;;3.90;3.60;;;12.60;99.90;;;;;;4896225;29;20321;-80
2024/04/04 11:06:21;;;;;;;4.17;3.40;;;12.60;99.90;;;;;;4894452;29;20743;-80
2024/04/04 11:08:49;;;;;;;3.77;3.40;;;12.70;99.90;;;;;;4893969;29;20215;-79
2024/04/04 11:11:17;;;;;;;4.37;3.37;;;12.70;99.90;;;;;;4895364;29;20267;-84
2024/04/04 11:13:43;;;;;;;5.57;3.40;;;12.70;99.90;;;;;;4893122;29;20211;-86
2024/04/04 11:16:11;;;;;;;5.97;3.50;;;12.80;99.90;;;;;;4895431;29;20231;-85
2024/04/04 11:19:21;;;;;;;3.83;3.53;;;12.90;99.90;;;;;;4893170;29;20664;-86
2024/04/04 11:22:33;;;;;;;3.30;3.00;;;12.90;99.90;;;;;;4892684;29;20665;-86
2024/04/04 11:25:36;;;;;;;3.00;2.80;;;12.90;99.90;;;;;;4895450;29;20276;-84
2024/04/04 11:28:05;;;;;;;3.43;3.13;;;12.90;99.90;;;;;;4896155;29;20203;-84
2024/04/04 11:30:56;;;;;;;3.37;2.70;;;12.90;99.90;;;;;;4890845;29;20231;-85
2024/04/04 11:47:30;;;;;;;2.77;2.57;;;12.70;99.90;;;;;;4855967;29;20751;-83
2024/04/04 11:50:01;;;;;;;3.27;2.60;;;12.70;99.90;;;;;;4838104;29;20232;-83
2024/04/04 11:52:28;;;;;;;3.03;2.57;;;12.70;99.90;;;;;;4890606;29;20214;-83
2024/04/04 11:54:54;;;;;;;4.03;2.43;;;12.70;99.90;;;;;;4903710;29;20291;-83
2024/04/04 11:57:23;;;;;;;2.90;2.40;;;12.60;99.90;;;;;;4898935;29;20318;-84
2024/04/04 11:59:49;;;;;;;3.83;2.07;;;12.60;99.90;;;;;;4896218;29;20286;-83
2024/04/04 12:02:16;;;;;;;1.90;1.60;;;12.50;99.90;;;;;;4899302;29;20361;-83
2024/04/04 12:04:43;;;;;;;1.50;1.40;;;12.50;99.90;;;;;;4897977;29;20330;-84
2024/04/04 12:07:10;;;;;;;1.70;1.37;;;12.40;99.90;;;;;;4900779;29;20317;-83
2024/04/04 12:09:36;;;;;;;0.90;0.80;;;12.40;99.90;;;;;;4900351;29;20229;-83
2024/04/04 12:12:05;;;;;;;0.93;0.70;;;12.30;99.90;;;;;;4895973;29;20271;-83
2024/04/04 12:14:31;;;;;;;3.23;1.00;;;12.20;99.90;;;;;;4898501;29;20215;-83
2024/04/04 12:16:57;;;;;;;1.37;1.10;;;12.20;99.90;;;;;;4899832;29;20219;-83
2024/04/04 12:19:26;;;;;;;1.30;0.87;;;12.20;99.90;;;;;;4901102;29;20290;-84
2024/04/04 12:21:55;;;;;;;1.43;0.80;;;12.20;99.90;;;;;;4895765;29;20217;-83
2024/04/04 12:24:23;;;;;;;1.60;0.80;;;12.20;99.90;;;;;;4900030;29;20388;-84
2024/04/04 12:26:51;;;;;;;1.37;0.90;;;12.20;99.90;;;;;;4904510;29;20716;-82
2024/04/04 12:29:17;;;;;;;1.10;0.80;;;12.20;99.90;;;;;;4899541;29;20203;-83
2024/04/04 12:31:43;;;;;;;0.80;0.60;;;12.10;99.90;;;;;;4897471;29;20234;-83
2024/04/04 12:34:09;;;;;;;0.93;0.70;;;12.10;99.90;;;;;;4898198;29;20267;-82
2024/04/04 12:36:37;;;;;;;2.20;0.73;;;12.10;99.90;;;;;;4899289;29;20322;-83
2024/04/04 12:39:08;;;;;;;1.50;0.93;;;12.10;99.90;;;;;;4898169;29;20683;-82
2024/04/04 12:41:35;;;;;;;0.90;0.67;;;12.10;99.90;;;;;;4895484;29;20262;-84
2024/04/04 12:44:01;;;;;;;0.87;0.67;;;12.10;99.90;;;;;;4896367;29;20307;-83
2024/04/04 12:46:28;;;;;;;1.10;0.80;;;12.20;99.90;;;;;;4895652;29;20219;-83
2024/04/04 12:48:59;;;;;;;0.60;0.60;;;12.20;99.90;;;;;;4882943;29;20226;-83
2024/04/04 12:51:26;;;;;;;0.70;0.50;;;12.20;99.90;;;;;;4898280;29;20205;-84
2024/04/04 12:53:52;;;;;;;1.33;0.77;;;12.20;99.90;;;;;;4900596;29;20286;-83
2024/04/04 12:56:21;;;;;;;0.90;0.83;;;12.20;99.90;;;;;;4900307;29;20318;-84
2024/04/04 12:58:49;;;;;;;1.83;1.10;;;12.20;99.90;;;;;;4898061;29;20290;-84
2024/04/04 13:01:16;;;;;;;1.57;1.10;;;12.20;99.90;;;;;;4898146;29;20315;-83
2024/04/04 13:03:42;;;;;;;1.20;1.10;;;12.30;99.90;;;;;;4898900;29;20324;-84
2024/04/04 13:06:10;;;;;;;1.73;0.93;;;12.40;99.90;;;;;;4900524;29;20313;-84
2024/04/04 13:08:36;;;;;;;3.83;1.20;;;12.40;99.90;;;;;;4899467;29;20279;-84
2024/04/04 13:11:03;;;;;;;2.47;1.40;;;12.50;99.90;;;;;;4901143;29;20360;-84
2024/04/04 13:13:31;;;;;;;3.03;1.30;;;12.50;99.90;;;;;;4898955;29;20275;-84
2024/04/04 13:15:57;;;;;;;1.77;1.30;;;12.70;99.90;;;;;;4899851;29;20262;-83
2024/04/04 13:18:23;;;;;;;2.23;1.67;;;12.90;99.90;;;;;;4899686;29;20298;-83
2024/04/04 13:20:50;;;;;;;2.07;1.30;;;13.20;99.90;;;;;;4897801;29;20720;-83
2024/04/04 13:23:16;;;;;;;4.93;1.70;;;13.30;99.90;;;;;;4897718;29;20747;-84
2024/04/04 13:25:43;;;;;;;2.53;1.60;;;13.30;99.90;;;;;;4898756;29;20302;-84
2024/04/04 13:28:09;;;;;;;5.37;1.67;;;13.50;99.90;;;;;;4899194;29;20306;-84
2024/04/04 13:30:37;;;;;;;2.30;1.47;;;14.10;99.90;;;;;;4896495;29;20290;-84
2024/04/04 13:33:03;;;;;;;3.27;1.20;;;14.70;99.90;;;;;;4898732;29;20302;-84
2024/04/04 13:35:30;;;;;;;1.30;1.00;;;15.40;99.90;;;;;;4900002;29;20667;-83
2024/04/04 13:37:56;;;;;;;1.47;1.10;;;15.20;99.90;;;;;;4899265;29;20246;-83
2024/04/04 13:40:23;;;;;;;4.17;1.20;;;15.00;99.90;;;;;;4898044;29;20227;-83
2024/04/04 13:42:49;;;;;;;3.43;1.30;;;15.00;99.90;;;;;;4895827;29;20210;-83
2024/04/04 13:45:16;;;;;;;2.57;1.00;;;14.90;99.90;;;;;;4894834;29;20233;-83
2024/04/04 13:47:43;;;;;;;5.37;1.17;;;14.70;99.90;;;;;;4894118;29;20275;-81
2024/04/04 13:50:10;;;;;;;2.77;1.00;;;14.60;99.90;;;;;;4896173;29;20203;-83
2024/04/04 13:52:36;;;;;;;6.07;1.20;;;14.30;99.90;;;;;;4895606;29;20594;-83
2024/04/04 13:55:03;;;;;;;2.37;1.17;;;14.20;99.90;;;;;;4892647;29;20283;-83
2024/04/04 13:57:29;;;;;;;4.10;1.30;;;14.20;99.90;;;;;;4889981;29;20330;-82
2024/04/04 13:59:56;;;;;;;2.47;1.30;;;14.10;99.90;;;;;;4892879;29;20206;-82
2024/04/04 14:02:22;;;;;;;2.27;1.20;;;14.20;99.90;;;;;;4893738;29;20243;-83
2024/04/04 14:04:50;;;;;;;4.63;1.20;;;14.20;99.90;;;;;;4890410;29;20255;-83
2024/04/04 14:07:16;;;;;;;3.00;1.10;;;14.20;99.90;;;;;;4892679;29;20291;-84
2024/04/04 14:09:44;;;;;;;4.80;1.20;;;14.10;99.90;;;;;;4901432;29;20208;-83
2024/04/04 14:12:10;;;;;;;4.23;1.40;;;14.00;99.90;;;;;;4899278;29;20207;-84
2024/04/04 14:14:36;;;;;;;3.97;1.30;;;13.90;99.90;;;;;;4897641;29;20439;-85
2024/04/04 14:17:04;;;;;;;2.27;1.37;;;13.80;99.90;;;;;;4897301;29;20758;-83
2024/04/04 14:19:31;;;;;;;2.37;1.27;;;13.70;99.90;;;;;;4900426;29;20765;-83
2024/04/04 14:21:58;;;;;;;3.40;1.20;;;13.70;99.90;;;;;;4896678;29;20347;-84
2024/04/04 14:24:25;;;;;;;4.33;1.80;;;13.70;99.90;;;;;;4894800;29;20259;-84
2024/04/04 14:26:51;;;;;;;4.13;1.63;;;13.70;99.90;;;;;;4896273;29;20241;-84
2024/04/04 14:29:18;;;;;;;5.13;1.73;;;13.70;99.90;;;;;;4893848;29;20290;-83
2024/04/04 14:31:46;;;;;;;4.50;1.30;;;13.80;99.90;;;;;;4894331;29;20231;-83
2024/04/04 14:34:13;;;;;;;2.33;0.97;;;13.80;99.90;;;;;;4894337;29;20199;-83
2024/04/04 14:36:38;;;;;;;5.40;1.27;;;13.80;99.90;;;;;;4892267;29;20230;-84
2024/04/04 14:39:07;;;;;;;4.00;1.20;;;13.80;99.90;;;;;;4889631;29;20199;-83
2024/04/04 14:41:33;;;;;;;7.07;1.40;;;13.70;99.90;;;;;;4894862;29;20682;-83
2024/04/04 14:44:00;;;;;;;9.20;1.33;;;13.80;99.90;;;;;;4894292;29;20286;-84
2024/04/04 14:46:26;;;;;;;4.93;1.57;;;13.80;99.90;;;;;;4896448;29;20367;-84
2024/04/04 14:48:53;;;;;;;8.17;1.87;;;13.80;99.90;;;;;;4896855;29;20311;-84
2024/04/04 14:51:19;;;;;;;3.07;1.20;;;13.80;99.90;;;;;;4897766;29;20620;-84
2024/04/04 14:53:52;;;;;;;4.40;1.17;;;13.80;99.90;;;;;;4892602;29;20255;-84
2024/04/04 14:56:20;;;;;;;3.67;1.10;;;13.80;99.90;;;;;;4894603;29;20219;-83
2024/04/04 14:58:47;;;;;;;2.17;0.90;;;13.80;99.90;;;;;;4893655;29;20219;-84
2024/04/04 15:02:05;;;;;;;7.30;1.63;;;13.80;99.90;;;;;;4901782;29;20650;-84
2024/04/04 15:04:33;;;;;;;6.33;1.30;;;13.80;99.90;;;;;;4902137;29;20238;-84
2024/04/04 15:07:03;;;;;;;3.67;1.17;;;13.80;99.90;;;;;;4901493;29;20318;-83
2024/04/04 15:09:44;;;;;;;5.97;1.13;;;13.80;99.90;;;;;;4905237;29;20207;-83
2024/04/04 15:12:38;;;;;;;4.67;1.37;;;13.80;99.90;;;;;;4899685;29;20199;-81
2024/04/04 15:15:07;;;;;;;5.97;1.33;;;13.80;99.90;;;;;;4902786;29;20262;-82
2024/04/04 15:17:47;;;;;;;3.80;1.33;;;13.80;99.90;;;;;;4901794;29;20295;-80
2024/04/04 15:20:16;;;;;;;2.80;0.93;;;13.70;99.90;;;;;;4903107;29;20245;-83
2024/04/04 15:22:43;;;;;;;3.87;1.00;;;13.70;99.90;;;;;;4904570;29;20659;-80
2024/04/04 15:25:09;;;;;;;4.10;1.40;;;13.60;99.90;;;;;;4903175;29;20313;-81
2024/04/04 15:27:37;;;;;;;3.40;0.90;;;13.60;99.90;;;;;;4902543;29;20257;-81
2024/04/04 15:30:03;;;;;;;4.60;1.13;;;13.50;99.90;;;;;;4904297;29;20725;-81
2024/04/04 15:46:11;;;;;;;7.03;1.60;;;13.40;99.90;;;;;;5109690;27;20560;-82
2024/04/04 15:48:37;;;;;;;6.80;1.20;;;13.80;99.90;;;;;;5085477;28;20748;-82
2024/04/04 15:51:04;;;;;;;6.53;1.37;;;14.80;99.90;;;;;;5088522;28;20283;-82
2024/04/04 15:53:30;;;;;;;5.63;1.30;;;15.00;99.90;;;;;;5084131;28;20688;-82
2024/04/04 15:55:57;;;;;;;6.67;1.57;;;14.60;99.90;;;;;;5096486;28;20213;-82
2024/04/04 15:58:23;;;;;;;4.10;1.10;;;14.10;99.90;;;;;;5094925;28;20287;-82
2024/04/04 16:00:50;;;;;;;3.17;1.37;;;13.80;99.90;;;;;;5100554;28;20282;-82
2024/04/04 16:03:17;;;;;;;7.20;1.37;;;13.60;99.90;;;;;;5093426;28;20207;-82
2024/04/04 21:41:25;;;;;;;9.37;2.57;;;11.90;99.90;;;;;;4911088;29;20610;-83
